Time;durP1;ratioP1;P1;durP2;ratioP2;P2;SDS_P1;SDS_P2;PMS_P1;PMS_P2;Temp;Humidity;BMP_temperature;BMP_pressure;BME280_temperature;BME280_humidity;BME280_pressure;Samples;Min_cycle;Max_cycle;Signal;HPM_P1;HPM_P2
2024/01/04 00:01:48;;;;;;;4.25;2.10;;;;;;;24.49;34.24;98058.53;4984530;28;20560;-46
2024/01/04 00:04:14;;;;;;;4.95;2.22;;;;;;;24.49;34.35;98053.00;4987738;28;20030;-46
2024/01/04 00:06:44;;;;;;;4.28;2.10;;;;;;;24.48;34.43;98068.06;4982717;28;20019;-46
2024/01/04 00:09:10;;;;;;;4.28;2.00;;;;;;;24.46;34.46;98067.84;4988770;28;20073;-46
2024/01/04 00:11:35;;;;;;;4.70;2.30;;;;;;;24.49;34.35;98075.81;4981816;28;20046;-46
2024/01/04 00:14:02;;;;;;;4.20;1.90;;;;;;;24.46;34.35;98084.38;4986386;28;20026;-48
2024/01/04 00:16:27;;;;;;;4.23;2.03;;;;;;;24.46;34.23;98076.13;4984729;28;20034;-46
2024/01/04 00:18:53;;;;;;;4.43;1.77;;;;;;;24.44;34.32;98068.38;4981142;28;20029;-46
2024/01/04 00:21:18;;;;;;;3.75;1.77;;;;;;;24.48;34.25;98079.09;4983092;28;20030;-46
2024/01/04 00:23:43;;;;;;;4.70;2.10;;;;;;;24.47;34.33;98083.88;4982816;28;20014;-46
2024/01/04 00:26:09;;;;;;;4.50;1.90;;;;;;;24.46;34.13;98089.91;4980733;28;20110;-47
2024/01/04 00:28:34;;;;;;;3.90;1.80;;;;;;;24.48;34.38;98090.13;4984193;28;20034;-46
2024/01/04 00:31:00;;;;;;;3.85;1.80;;;;;;;24.46;34.21;98098.19;4985580;28;20032;-50
2024/01/04 00:33:25;;;;;;;4.13;1.90;;;;;;;24.48;34.35;98104.66;4984340;28;20438;-48
2024/01/04 00:35:50;;;;;;;4.55;1.90;;;;;;;24.47;34.22;98105.94;4986125;28;20541;-48
2024/01/04 00:38:16;;;;;;;3.90;1.60;;;;;;;24.48;34.38;98096.38;4979856;28;20022;-46
2024/01/04 00:40:41;;;;;;;3.92;1.80;;;;;;;24.46;34.36;98109.22;4986882;28;20041;-47
2024/01/04 00:43:06;;;;;;;3.92;1.70;;;;;;;24.46;34.30;98117.50;4983092;28;20023;-46
2024/01/04 00:45:32;;;;;;;4.05;1.75;;;;;;;24.44;34.37;98118.00;4983502;28;20018;-46
2024/01/04 00:47:57;;;;;;;4.07;1.80;;;;;;;24.43;34.47;98126.81;4979728;28;20394;-51
2024/01/04 00:50:23;;;;;;;4.03;1.63;;;;;;;24.43;34.28;98132.31;4988871;28;20149;-49
2024/01/04 00:52:49;;;;;;;3.78;1.65;;;;;;;24.43;34.22;98132.31;4985761;28;20022;-47
2024/01/04 00:55:15;;;;;;;3.85;1.60;;;;;;;24.44;34.25;98134.56;4982079;28;20045;-48
2024/01/04 00:57:40;;;;;;;3.47;1.60;;;;;;;24.45;34.24;98136.03;4983414;28;20022;-48
2024/01/04 01:00:06;;;;;;;3.83;1.67;;;;;;;24.46;34.16;98134.78;4983179;28;20023;-49
2024/01/04 01:02:32;;;;;;;4.45;1.83;;;;;;;24.46;34.27;98128.53;4985001;28;20069;-48
2024/01/04 01:04:57;;;;;;;3.83;1.63;;;;;;;24.45;34.50;98125.00;4986773;28;20425;-46
2024/01/04 01:07:22;;;;;;;3.10;1.50;;;;;;;24.43;34.31;98110.25;4987075;28;20104;-46
2024/01/04 01:09:48;;;;;;;3.60;1.63;;;;;;;24.44;34.18;98109.72;4984982;28;20461;-46
2024/01/04 01:12:13;;;;;;;3.45;1.58;;;;;;;24.44;34.24;98106.22;4985011;28;20100;-52
2024/01/04 01:14:39;;;;;;;4.03;1.70;;;;;;;24.46;34.26;98114.72;4993117;28;20112;-46
2024/01/04 01:17:04;;;;;;;3.47;1.70;;;;;;;24.46;34.35;98121.00;4986635;28;20032;-46
2024/01/04 01:19:29;;;;;;;3.50;1.50;;;;;;;24.46;34.31;98132.03;4988301;28;20030;-46
2024/01/04 01:21:55;;;;;;;4.10;1.50;;;;;;;24.44;34.24;98137.31;4988897;28;20038;-46
2024/01/04 01:24:20;;;;;;;3.60;1.50;;;;;;;24.42;34.21;98150.88;4986712;28;20023;-49
2024/01/04 01:26:45;;;;;;;3.33;1.40;;;;;;;24.42;34.35;98152.91;4986931;28;20392;-47
2024/01/04 01:29:11;;;;;;;3.38;1.38;;;;;;;24.42;34.28;98158.41;4986586;28;20161;-49
2024/01/04 01:31:40;;;;;;;3.53;1.50;;;;;;;24.40;34.29;98156.19;4985021;28;20039;-49
2024/01/04 01:34:06;;;;;;;3.28;1.40;;;;;;;24.39;34.40;98138.88;4985390;28;20026;-48
2024/01/04 01:36:31;;;;;;;3.70;1.30;;;;;;;24.39;34.33;98144.41;4983618;28;20031;-47
2024/01/04 01:38:56;;;;;;;3.35;1.40;;;;;;;24.41;34.33;98140.38;4989188;28;20030;-48
2024/01/04 01:41:22;;;;;;;3.50;1.52;;;;;;;24.41;34.37;98156.91;4988576;28;20030;-46
2024/01/04 01:43:47;;;;;;;3.15;1.40;;;;;;;24.42;34.41;98169.44;4990678;28;20083;-48
2024/01/04 01:46:12;;;;;;;3.30;1.48;;;;;;;24.42;34.40;98172.19;4987438;28;20030;-47
2024/01/04 01:48:38;;;;;;;2.90;1.30;;;;;;;24.43;34.38;98179.94;4982915;28;20033;-46
2024/01/04 01:51:03;;;;;;;3.08;1.40;;;;;;;24.43;34.56;98179.22;4984655;28;20521;-46
2024/01/04 01:53:29;;;;;;;2.95;1.35;;;;;;;24.43;34.35;98181.97;4986752;28;20356;-47
2024/01/04 01:55:54;;;;;;;3.28;1.30;;;;;;;24.43;34.37;98204.03;5020309;28;20026;-48
2024/01/04 01:58:21;;;;;;;2.97;1.20;;;;;;;24.43;34.41;98204.03;5008991;28;20483;-50
2024/01/04 02:00:46;;;;;;;3.15;1.30;;;;;;;24.44;34.47;98208.28;4981989;28;20393;-51
2024/01/04 02:03:12;;;;;;;2.53;1.17;;;;;;;24.41;34.46;98212.81;4986769;28;20019;-47
2024/01/04 02:05:37;;;;;;;2.67;1.20;;;;;;;24.41;34.48;98229.38;4988556;28;20026;-46
2024/01/04 02:08:03;;;;;;;3.35;1.40;;;;;;;24.38;34.34;98220.13;4981984;28;20022;-47
2024/01/04 02:10:28;;;;;;;2.70;1.20;;;;;;;24.40;34.48;98233.41;4987542;28;20138;-48
2024/01/04 02:12:53;;;;;;;2.83;1.13;;;;;;;24.39;34.47;98227.13;4983357;28;20026;-46
2024/01/04 02:15:19;;;;;;;3.28;1.30;;;;;;;24.37;34.58;98232.44;4988474;28;20714;-47
2024/01/04 02:17:44;;;;;;;3.35;1.30;;;;;;;24.38;34.49;98247.69;4977833;28;20105;-49
2024/01/04 02:20:10;;;;;;;2.90;1.10;;;;;;;24.39;34.48;98256.72;4981652;28;20026;-47
2024/01/04 02:22:36;;;;;;;2.28;1.10;;;;;;;24.39;34.14;98268.50;4979895;28;20046;-47
2024/01/04 02:25:03;;;;;;;2.80;1.25;;;;;;;24.39;34.44;98285.03;4986645;28;20399;-46
2024/01/04 02:27:29;;;;;;;2.35;1.15;;;;;;;24.39;34.41;98276.78;4982418;28;20064;-46
2024/01/04 02:29:54;;;;;;;2.90;1.20;;;;;;;24.42;34.51;98285.28;4984763;28;20416;-49
2024/01/04 02:32:19;;;;;;;2.40;1.08;;;;;;;24.38;34.54;98289.06;4983188;28;20037;-46
2024/01/04 02:34:45;;;;;;;2.35;1.10;;;;;;;24.38;34.58;98297.34;4983602;28;20037;-49
2024/01/04 02:37:10;;;;;;;2.30;1.00;;;;;;;24.37;34.48;98292.38;4984375;28;20022;-47
2024/01/04 02:39:35;;;;;;;3.13;1.20;;;;;;;24.36;34.63;98299.91;4984818;28;20590;-46
2024/01/04 02:42:01;;;;;;;3.10;1.30;;;;;;;24.39;34.63;98311.88;4986566;28;20045;-46
2024/01/04 02:44:26;;;;;;;2.30;1.02;;;;;;;24.39;34.48;98312.63;4981660;28;20022;-46
2024/01/04 02:46:51;;;;;;;2.17;1.05;;;;;;;24.39;34.61;98306.38;4980518;28;20022;-49
2024/01/04 02:49:17;;;;;;;2.20;1.00;;;;;;;24.38;34.51;98311.13;4980371;28;20034;-50
2024/01/04 02:51:42;;;;;;;2.33;1.05;;;;;;;24.37;34.52;98312.44;4986314;28;20109;-46
2024/01/04 02:54:08;;;;;;;2.25;1.02;;;;;;;24.39;34.46;98314.63;4986684;28;20390;-47
2024/01/04 02:56:33;;;;;;;3.22;1.30;;;;;;;24.38;34.58;98310.38;4984324;28;20054;-46
2024/01/04 02:58:59;;;;;;;2.35;1.05;;;;;;;24.38;34.59;98313.88;4980785;28;20052;-49
2024/01/04 03:01:24;;;;;;;1.98;1.00;;;;;;;24.38;34.66;98330.44;4986382;28;20519;-47
2024/01/04 03:03:51;;;;;;;2.33;1.10;;;;;;;24.39;34.55;98326.41;4984328;28;20025;-47
2024/01/04 03:06:30;;;;;;;2.22;1.05;;;;;;;24.38;34.59;98324.19;4982946;28;20019;-46
2024/01/04 03:08:55;;;;;;;2.42;1.02;;;;;;;24.39;34.67;98326.41;4981673;28;20433;-46
2024/01/04 03:11:21;;;;;;;2.55;1.08;;;;;;;24.36;34.58;98324.72;4980991;28;20026;-46
2024/01/04 03:13:46;;;;;;;2.15;1.00;;;;;;;24.38;34.59;98330.44;4983914;28;20037;-48
2024/01/04 03:16:12;;;;;;;2.33;1.00;;;;;;;24.35;34.42;98326.00;4988775;28;20034;-48
2024/01/04 03:18:38;;;;;;;2.42;1.02;;;;;;;24.36;34.59;98321.97;4986096;28;20513;-47
2024/01/04 03:21:04;;;;;;;3.33;1.20;;;;;;;24.37;34.46;98330.97;4982665;28;20030;-47
2024/01/04 03:23:30;;;;;;;2.35;1.02;;;;;;;24.35;34.55;98331.50;4981497;28;20033;-49
2024/01/04 03:25:55;;;;;;;2.03;0.98;;;;;;;24.36;34.58;98335.75;4982926;28;20112;-48
2024/01/04 03:28:20;;;;;;;2.40;1.00;;;;;;;24.35;34.49;98326.00;4979732;28;20092;-50
2024/01/04 03:30:46;;;;;;;1.73;0.93;;;;;;;24.34;34.56;98324.50;4973507;28;20870;-50
2024/01/04 03:33:11;;;;;;;1.98;1.00;;;;;;;24.35;34.63;98325.25;4977381;28;20026;-51
2024/01/04 03:35:36;;;;;;;2.42;1.00;;;;;;;24.36;34.42;98333.00;4981758;28;20031;-50
2024/01/04 03:38:02;;;;;;;2.78;1.00;;;;;;;24.33;34.61;98328.53;4980002;28;20022;-49
2024/01/04 03:40:27;;;;;;;1.73;0.90;;;;;;;24.37;34.62;98331.72;4984218;28;20038;-47
2024/01/04 03:42:52;;;;;;;2.78;1.10;;;;;;;24.36;34.47;98332.25;4984966;28;20029;-50
2024/01/04 03:45:18;;;;;;;2.05;0.93;;;;;;;24.36;34.47;98329.50;4983861;28;20030;-47
2024/01/04 03:47:43;;;;;;;1.60;0.90;;;;;;;24.35;34.54;98339.78;4976809;28;20033;-48
2024/01/04 03:50:09;;;;;;;2.78;1.00;;;;;;;24.36;34.62;98348.78;4981273;28;20038;-48
2024/01/04 03:52:35;;;;;;;2.13;1.00;;;;;;;24.36;34.50;98355.06;4982387;28;20030;-47
2024/01/04 03:55:00;;;;;;;1.80;0.85;;;;;;;24.35;34.44;98359.09;4980568;28;20027;-46
2024/01/04 03:57:25;;;;;;;2.63;1.00;;;;;;;24.37;34.29;98358.56;4978141;28;20034;-48
2024/01/04 03:59:51;;;;;;;2.08;0.90;;;;;;;24.36;34.39;98357.81;4984003;28;20049;-48
2024/01/04 04:02:16;;;;;;;2.25;0.90;;;;;;;24.37;34.32;98353.78;4981123;28;20062;-47
2024/01/04 04:04:41;;;;;;;1.30;0.80;;;;;;;24.36;34.44;98357.06;4982595;28;20039;-48
2024/01/04 04:07:07;;;;;;;1.83;0.90;;;;;;;24.35;34.54;98369.38;4985159;28;20595;-47
2024/01/04 04:09:32;;;;;;;1.38;0.77;;;;;;;24.34;34.54;98374.13;4981197;28;20034;-47
2024/01/04 04:11:58;;;;;;;1.67;0.85;;;;;;;24.33;34.51;98388.44;4978376;28;20044;-49
2024/01/04 04:14:23;;;;;;;1.48;0.70;;;;;;;24.33;34.47;98389.19;4982052;28;20023;-46
2024/01/04 04:16:48;;;;;;;1.90;1.00;;;;;;;24.34;34.40;98395.44;4978821;28;20025;-49
2024/01/04 04:19:14;;;;;;;2.47;0.90;;;;;;;24.33;34.49;98391.19;4978636;28;20038;-51
2024/01/04 04:21:40;;;;;;;1.75;0.80;;;;;;;24.33;34.43;98391.94;4980064;28;20022;-48
2024/01/04 04:24:06;;;;;;;1.33;0.70;;;;;;;24.34;34.42;98396.19;4981859;28;20377;-46
2024/01/04 04:26:31;;;;;;;1.90;0.90;;;;;;;24.33;34.40;98383.66;4979602;28;20027;-50
2024/01/04 04:28:56;;;;;;;1.33;0.73;;;;;;;24.33;34.43;98394.69;4985248;28;20026;-51
2024/01/04 04:31:22;;;;;;;1.90;0.90;;;;;;;24.33;34.47;98402.22;4978689;28;20052;-49
2024/01/04 04:33:47;;;;;;;1.85;0.82;;;;;;;24.32;34.60;98401.47;4980097;28;20030;-50
2024/01/04 04:36:13;;;;;;;1.85;0.88;;;;;;;24.31;34.67;98404.75;4980048;28;20049;-50
2024/01/04 04:38:38;;;;;;;1.48;0.60;;;;;;;24.31;34.51;98407.50;4985641;28;20031;-47
2024/01/04 04:41:04;;;;;;;1.23;0.70;;;;;;;24.28;34.62;98403.78;4986269;28;20045;-47
2024/01/04 04:43:30;;;;;;;2.75;1.00;;;;;;;24.32;34.71;98403.50;4981470;28;20022;-48
2024/01/04 04:45:56;;;;;;;2.75;0.80;;;;;;;24.28;34.72;98403.78;4984774;28;20706;-47
2024/01/04 04:48:21;;;;;;;2.72;0.90;;;;;;;24.28;34.64;98405.78;4980696;28;20458;-49
2024/01/04 04:50:48;;;;;;;1.92;0.85;;;;;;;24.30;34.76;98406.75;4985359;28;20057;-47
2024/01/04 04:53:13;;;;;;;2.88;1.00;;;;;;;24.32;34.77;98407.00;4981152;28;20026;-48
2024/01/04 04:55:39;;;;;;;1.85;0.90;;;;;;;24.30;34.63;98403.25;4982761;28;20044;-48
2024/01/04 04:58:04;;;;;;;2.78;1.10;;;;;;;24.33;34.69;98410.50;4976555;28;20022;-47
2024/01/04 05:00:29;;;;;;;1.67;0.95;;;;;;;24.33;34.86;98416.00;4978747;28;20044;-55
2024/01/04 05:02:55;;;;;;;3.85;1.00;;;;;;;24.33;34.95;98414.00;4980268;28;20019;-48
2024/01/04 05:05:20;;;;;;;3.80;0.98;;;;;;;24.31;34.94;98427.56;4975838;28;20034;-50
2024/01/04 05:07:45;;;;;;;2.20;0.98;;;;;;;24.32;34.87;98420.03;4981333;28;20037;-48
2024/01/04 05:10:11;;;;;;;3.28;1.20;;;;;;;24.29;34.93;98419.06;4983777;28;20048;-47
2024/01/04 05:12:36;;;;;;;2.70;0.95;;;;;;;24.30;34.89;98428.81;4980769;28;20022;-50
2024/01/04 05:15:01;;;;;;;2.20;1.00;;;;;;;24.29;34.91;98429.34;4976293;28;20026;-48
2024/01/04 05:17:27;;;;;;;2.40;0.90;;;;;;;24.30;35.02;98428.06;4977032;28;20049;-47
2024/01/04 05:19:52;;;;;;;3.75;1.05;;;;;;;24.31;35.06;98441.34;4979684;28;20026;-49
2024/01/04 05:22:18;;;;;;;2.67;1.00;;;;;;;24.30;35.14;98439.84;4985049;28;20050;-47
2024/01/04 05:24:43;;;;;;;2.08;0.93;;;;;;;24.31;35.22;98451.63;4979448;28;20014;-46
2024/01/04 05:27:09;;;;;;;2.25;0.95;;;;;;;24.32;35.08;98442.84;4978642;28;20019;-49
2024/01/04 05:29:34;;;;;;;2.60;1.10;;;;;;;24.30;35.17;98450.88;4977380;28;20537;-48
2024/01/04 05:32:01;;;;;;;2.10;0.85;;;;;;;24.30;35.22;98456.41;4978565;28;20671;-47
2024/01/04 05:34:29;;;;;;;2.85;1.00;;;;;;;24.32;35.18;98464.91;4978126;28;20471;-49
2024/01/04 05:36:54;;;;;;;2.50;0.98;;;;;;;24.32;34.99;98470.41;4982146;28;20395;-47
2024/01/04 05:39:19;;;;;;;2.70;1.15;;;;;;;24.34;35.09;98475.41;4980960;28;20049;-46
2024/01/04 05:41:45;;;;;;;1.20;0.77;;;;;;;24.33;35.02;98480.19;4984307;28;20437;-48
2024/01/04 05:44:10;;;;;;;2.97;0.93;;;;;;;24.35;34.98;98474.91;4983004;28;20038;-46
2024/01/04 05:46:35;;;;;;;1.73;0.77;;;;;;;24.35;34.91;98485.94;4985883;28;20037;-46
2024/01/04 05:49:01;;;;;;;3.17;0.85;;;;;;;24.34;35.05;98501.00;4978103;28;20494;-47
2024/01/04 05:51:26;;;;;;;4.85;1.05;;;;;;;24.36;35.23;98492.94;4984226;28;20121;-45
2024/01/04 05:53:52;;;;;;;3.25;1.02;;;;;;;24.38;35.36;98490.41;4980704;28;20075;-45
2024/01/04 05:56:17;;;;;;;3.72;1.00;;;;;;;24.34;35.38;98489.22;4983660;28;20037;-40
2024/01/04 05:58:43;;;;;;;5.40;1.20;;;;;;;24.34;35.36;98505.75;4985905;28;20027;-44
2024/01/04 06:01:08;;;;;;;3.83;1.15;;;;;;;24.33;35.50;98513.28;4988036;28;20022;-48
2024/01/04 06:03:33;;;;;;;6.95;1.38;;;;;;;24.39;35.25;98513.94;4989070;28;20035;-52
2024/01/04 06:05:59;;;;;;;6.38;1.10;;;;;;;24.41;35.14;98510.69;4983733;28;20631;-50
2024/01/04 06:08:24;;;;;;;4.78;1.13;;;;;;;24.46;34.97;98515.41;4986975;28;20022;-41
2024/01/04 06:10:49;;;;;;;4.07;1.30;;;;;;;24.42;35.02;98527.97;4983416;28;20042;-50
2024/01/04 06:13:15;;;;;;;6.35;1.50;;;;;;;24.44;35.06;98520.69;4983071;28;20064;-50
2024/01/04 06:15:40;;;;;;;4.18;1.33;;;;;;;24.37;35.03;98526.78;4984834;28;20370;-51
2024/01/04 06:18:05;;;;;;;3.00;1.08;;;;;;;24.29;34.79;98536.88;4979985;28;20026;-42
2024/01/04 06:20:31;;;;;;;3.83;1.10;;;;;;;24.33;34.82;98543.63;4981815;28;20057;-44
2024/01/04 06:22:56;;;;;;;5.25;1.10;;;;;;;24.36;34.74;98531.56;4987433;28;20682;-41
2024/01/04 06:25:21;;;;;;;4.43;1.30;;;;;;;24.34;34.81;98536.84;4982284;28;20038;-42
2024/01/04 06:27:47;;;;;;;5.63;1.35;;;;;;;24.35;34.98;98532.81;4986673;28;20034;-44
2024/01/04 06:30:12;;;;;;;3.80;1.15;;;;;;;24.37;34.86;98549.59;4981789;28;20030;-50
2024/01/04 06:32:38;;;;;;;4.25;1.40;;;;;;;24.41;34.71;98545.78;4988082;28;20038;-43
2024/01/04 06:35:03;;;;;;;5.07;1.50;;;;;;;24.37;34.65;98560.63;4980798;28;20018;-41
2024/01/04 06:37:29;;;;;;;4.63;1.30;;;;;;;24.38;34.52;98561.34;4983774;28;20034;-40
2024/01/04 06:39:54;;;;;;;3.92;1.25;;;;;;;24.39;34.51;98579.41;4986153;28;20531;-48
2024/01/04 06:42:20;;;;;;;4.25;1.30;;;;;;;24.39;34.41;98569.13;4982301;28;20031;-41
2024/01/04 06:44:46;;;;;;;4.75;1.33;;;;;;;24.39;34.42;98584.91;4982817;28;20032;-42
2024/01/04 06:47:12;;;;;;;4.85;1.48;;;;;;;24.39;34.41;98591.19;4986868;28;20045;-46
2024/01/04 06:49:38;;;;;;;4.20;1.23;;;;;;;24.41;34.46;98589.91;4983457;28;20034;-52
2024/01/04 06:52:03;;;;;;;4.50;1.33;;;;;;;24.53;34.35;98596.84;4983565;28;20036;-44
2024/01/04 06:54:29;;;;;;;4.60;1.40;;;;;;;24.49;34.32;98601.91;4983875;28;20062;-54
2024/01/04 06:56:54;;;;;;;4.53;1.30;;;;;;;24.43;34.21;98601.94;4983239;28;20042;-59
2024/01/04 06:59:19;;;;;;;4.88;1.40;;;;;;;24.42;34.30;98628.03;4981899;28;20034;-40
2024/01/04 07:01:45;;;;;;;3.10;1.00;;;;;;;24.46;34.20;98619.47;4981524;28;20452;-39
2024/01/04 07:04:10;;;;;;;2.42;1.10;;;;;;;24.45;34.37;98620.72;4982443;28;20027;-39
2024/01/04 07:06:35;;;;;;;3.80;1.10;;;;;;;24.44;34.33;98631.00;4980660;28;20032;-41
2024/01/04 07:09:01;;;;;;;3.53;1.30;;;;;;;24.42;34.31;98630.78;4984351;28;20973;-48
2024/01/04 07:11:30;;;;;;;5.20;1.27;;;;;;;24.37;34.47;98632.34;4983399;28;20035;-48
2024/01/04 07:13:55;;;;;;;4.35;1.08;;;;;;;24.39;34.41;98640.81;4985643;28;20554;-43
2024/01/04 07:16:20;;;;;;;2.22;0.90;;;;;;;24.43;34.25;98628.78;4988871;28;20034;-49
2024/01/04 07:18:46;;;;;;;2.90;1.20;;;;;;;24.48;34.45;98634.25;4983435;28;20385;-51
2024/01/04 07:21:13;;;;;;;5.93;1.20;;;;;;;24.54;34.22;98634.22;4983486;28;20481;-52
2024/01/04 07:23:38;;;;;;;3.53;1.30;;;;;;;24.56;34.26;98637.94;4979220;28;20423;-52
2024/01/04 07:26:03;;;;;;;4.75;1.20;;;;;;;24.51;34.24;98641.50;4982043;28;20059;-51
2024/01/04 07:28:29;;;;;;;4.43;1.10;;;;;;;24.52;34.21;98639.50;4985792;28;20116;-50
2024/01/04 07:30:54;;;;;;;3.70;1.20;;;;;;;24.55;34.29;98636.47;4980157;28;20030;-52
2024/01/04 07:33:22;;;;;;;4.30;1.25;;;;;;;24.56;34.14;98649.00;4981638;28;20034;-53
2024/01/04 07:35:47;;;;;;;3.28;1.10;;;;;;;24.53;34.23;98638.22;4980877;28;20041;-55
2024/01/04 07:38:12;;;;;;;5.70;1.10;;;;;;;24.54;34.10;98639.72;4983483;28;20105;-51
2024/01/04 07:40:38;;;;;;;3.20;1.10;;;;;;;24.57;34.14;98644.97;4981748;28;20088;-53
2024/01/04 07:43:03;;;;;;;3.90;1.35;;;;;;;24.53;34.08;98635.47;4981453;28;20034;-51
2024/01/04 07:45:28;;;;;;;4.85;1.42;;;;;;;24.55;34.08;98644.72;4986309;28;20030;-50
2024/01/04 07:47:54;;;;;;;3.65;1.20;;;;;;;24.56;34.18;98643.47;4979807;28;20034;-54
2024/01/04 07:50:19;;;;;;;2.10;1.02;;;;;;;24.59;33.95;98658.22;4983150;28;20022;-53
2024/01/04 07:52:44;;;;;;;3.13;1.17;;;;;;;24.59;34.09;98647.19;4980139;28;20412;-50
2024/01/04 07:55:10;;;;;;;3.33;1.30;;;;;;;24.57;34.28;98650.50;4978701;28;20478;-50
2024/01/04 07:57:35;;;;;;;6.47;1.60;;;;;;;24.59;34.26;98652.69;4984362;28;20026;-52
2024/01/04 08:00:00;;;;;;;3.60;1.20;;;;;;;24.57;34.35;98650.50;4982302;28;20030;-52
2024/01/04 08:02:28;;;;;;;3.72;1.50;;;;;;;24.59;34.33;98658.97;4983964;28;20031;-51
2024/01/04 08:04:53;;;;;;;3.33;1.23;;;;;;;24.58;34.15;98662.28;4982710;28;20439;-53
2024/01/04 08:07:19;;;;;;;3.50;1.30;;;;;;;24.57;34.24;98683.59;4983613;28;20041;-53
2024/01/04 08:09:44;;;;;;;4.00;1.20;;;;;;;24.56;34.71;98678.59;4994180;28;20483;-53
2024/01/04 08:12:12;;;;;;;3.10;1.20;;;;;;;24.57;34.32;98685.59;4981655;28;20036;-54
2024/01/04 08:14:37;;;;;;;4.88;1.30;;;;;;;24.57;34.26;98689.09;4978461;28;20066;-53
2024/01/04 08:17:03;;;;;;;3.05;1.20;;;;;;;24.55;34.44;98686.13;4983468;28;20115;-53
2024/01/04 08:19:30;;;;;;;3.63;1.20;;;;;;;24.56;34.26;98686.88;4978174;28;20051;-54
2024/01/04 08:21:55;;;;;;;3.65;1.40;;;;;;;24.52;34.23;98692.66;4979766;28;20038;-53
2024/01/04 08:24:21;;;;;;;4.55;1.23;;;;;;;24.48;34.33;98688.66;4984347;28;20109;-52
2024/01/04 08:26:46;;;;;;;3.80;1.33;;;;;;;24.55;34.51;98685.38;4984588;28;20026;-55
2024/01/04 08:29:11;;;;;;;5.03;1.38;;;;;;;24.50;34.22;98694.41;4982539;28;20025;-52
2024/01/04 08:31:37;;;;;;;4.78;1.55;;;;;;;24.51;34.27;98702.19;4982615;28;20405;-53
2024/01/04 08:34:02;;;;;;;4.35;1.40;;;;;;;24.52;34.16;98708.47;4982762;28;20077;-55
2024/01/04 08:36:27;;;;;;;3.80;1.58;;;;;;;24.52;34.04;98719.50;4981890;28;20026;-54
2024/01/04 08:38:53;;;;;;;6.78;1.50;;;;;;;24.54;33.98;98728.00;4983589;28;20018;-55
2024/01/04 08:41:18;;;;;;;3.92;1.42;;;;;;;24.55;34.06;98735.03;4978745;28;20482;-56
2024/01/04 08:43:43;;;;;;;4.00;1.42;;;;;;;24.58;34.21;98745.03;4981914;28;20019;-54
2024/01/04 08:46:10;;;;;;;3.38;1.10;;;;;;;24.60;34.26;98756.28;4977975;28;20032;-42
2024/01/04 08:48:35;;;;;;;11.27;1.60;;;;;;;24.62;34.24;98745.50;4983791;28;20029;-43
2024/01/04 08:51:01;;;;;;;6.53;1.40;;;;;;;24.66;34.30;98740.44;4976562;28;20026;-51
2024/01/04 08:53:26;;;;;;;4.38;1.40;;;;;;;24.71;34.33;98742.41;4985402;28;20031;-47
2024/01/04 08:55:52;;;;;;;7.65;1.73;;;;;;;24.75;34.38;98731.13;4977729;28;20026;-45
2024/01/04 08:58:17;;;;;;;4.25;1.40;;;;;;;24.67;34.16;98737.19;4982014;28;20030;-52
2024/01/04 09:00:43;;;;;;;7.45;1.45;;;;;;;24.65;34.44;98736.19;4979544;28;20121;-46
2024/01/04 09:03:08;;;;;;;5.82;1.63;;;;;;;24.61;34.36;98738.47;4980233;28;20023;-51
2024/01/04 09:05:33;;;;;;;8.25;3.28;;;;;;;24.56;34.74;98731.00;4974580;28;20023;-54
2024/01/04 09:07:59;;;;;;;8.40;2.60;;;;;;;24.57;34.64;98749.06;4985154;28;20030;-44
2024/01/04 09:10:24;;;;;;;9.45;2.88;;;;;;;24.53;34.55;98738.28;4979922;28;20120;-42
2024/01/04 09:12:51;;;;;;;7.05;2.40;;;;;;;24.59;34.78;98735.47;4986310;28;20026;-49
2024/01/04 09:15:17;;;;;;;8.83;2.50;;;;;;;24.62;34.56;98734.44;4983306;28;20145;-45
2024/01/04 09:17:43;;;;;;;7.18;2.70;;;;;;;24.61;34.39;98744.75;4983907;28;20025;-51
2024/01/04 09:20:09;;;;;;;7.10;2.33;;;;;;;24.56;34.16;98737.28;4982851;28;20026;-43
2024/01/04 09:22:34;;;;;;;5.90;2.03;;;;;;;24.61;34.61;98738.47;4984828;28;20040;-47
2024/01/04 09:24:59;;;;;;;6.53;2.00;;;;;;;24.61;34.61;98727.44;4983954;28;20023;-47
2024/01/04 09:27:25;;;;;;;6.05;2.00;;;;;;;24.68;34.56;98732.41;4981739;28;20493;-42
2024/01/04 09:29:52;;;;;;;6.75;2.40;;;;;;;24.65;34.46;98719.63;4985037;28;20409;-48
2024/01/04 09:32:18;;;;;;;6.15;2.10;;;;;;;24.63;34.22;98720.16;4983742;28;20038;-44
2024/01/04 09:34:43;;;;;;;5.78;2.15;;;;;;;24.69;34.26;98722.88;4985761;28;20035;-46
2024/01/04 09:37:09;;;;;;;6.50;2.20;;;;;;;24.67;33.84;98728.91;4982753;28;20106;-49
2024/01/04 09:39:34;;;;;;;6.40;2.05;;;;;;;24.70;33.70;98740.94;4988461;28;20057;-48
2024/01/04 09:41:59;;;;;;;5.18;1.90;;;;;;;24.62;34.11;98737.22;4980514;28;20026;-47
2024/01/04 09:44:25;;;;;;;6.28;2.47;;;;;;;24.67;33.42;98736.44;4986265;28;20019;-51
2024/01/04 09:46:52;;;;;;;5.28;1.83;;;;;;;24.66;34.03;98748.72;4981789;28;20041;-48
2024/01/04 09:49:17;;;;;;;6.78;1.90;;;;;;;24.63;34.13;98752.50;5011298;28;20026;-43
2024/01/04 09:51:43;;;;;;;10.65;1.80;;;;;;;24.62;33.96;98745.50;4982629;28;20042;-46
2024/01/04 09:54:09;;;;;;;5.57;1.85;;;;;;;24.57;33.92;98744.28;4985966;28;20599;-46
2024/01/04 09:56:38;;;;;;;4.70;1.85;;;;;;;24.58;33.99;98756.78;4983610;28;20478;-45
2024/01/04 09:59:04;;;;;;;5.28;1.90;;;;;;;24.60;33.88;98756.28;4983633;28;20122;-50
2024/01/04 10:01:35;;;;;;;4.90;1.85;;;;;;;24.60;33.37;98759.03;4983487;28;20026;-47
2024/01/04 10:04:14;;;;;;;4.88;1.85;;;;;;;24.48;33.81;98741.06;4983167;28;20034;-48
2024/01/04 10:06:40;;;;;;;7.18;2.05;;;;;;;24.49;33.25;98751.59;4980544;28;20038;-54
2024/01/04 10:09:18;;;;;;;4.63;1.90;;;;;;;24.47;33.50;98745.09;4983898;28;20105;-50
2024/01/04 10:11:50;;;;;;;5.53;1.80;;;;;;;24.46;33.41;98757.38;4980553;28;20026;-55
2024/01/04 10:14:16;;;;;;;5.40;2.00;;;;;;;24.43;33.23;98756.41;5013189;28;20174;-53
2024/01/04 10:16:42;;;;;;;5.57;2.00;;;;;;;24.46;32.96;98768.41;4982998;28;20034;-45
2024/01/04 10:19:08;;;;;;;5.28;1.92;;;;;;;24.31;32.82;98752.97;5014329;28;20057;-47
2024/01/04 10:21:33;;;;;;;5.03;1.63;;;;;;;24.31;32.91;98757.72;4985804;28;20022;-50
2024/01/04 10:23:59;;;;;;;5.38;1.80;;;;;;;24.28;32.99;98762.25;4985183;28;20021;-51
2024/01/04 10:26:26;;;;;;;4.25;1.52;;;;;;;24.34;33.03;98770.50;4982888;28;20548;-45
2024/01/04 10:28:55;;;;;;;5.07;2.03;;;;;;;24.23;33.23;98774.03;4982020;28;20039;-48
2024/01/04 10:31:22;;;;;;;4.60;1.80;;;;;;;24.41;33.39;98780.97;4979308;28;20034;-50
2024/01/04 10:33:47;;;;;;;5.63;1.90;;;;;;;24.44;32.94;98779.22;4982299;28;20496;-47
2024/01/04 10:36:13;;;;;;;5.18;1.90;;;;;;;24.48;33.07;98791.47;4995130;28;20027;-49
2024/01/04 10:38:38;;;;;;;6.10;1.88;;;;;;;24.44;32.72;98781.97;4979088;28;20026;-47
2024/01/04 10:41:04;;;;;;;3.95;1.70;;;;;;;24.46;32.61;98779.47;4984187;28;20481;-47
2024/01/04 10:43:33;;;;;;;6.30;1.73;;;;;;;24.42;32.58;98788.00;4983608;28;20034;-48
2024/01/04 10:46:08;;;;;;;4.78;1.50;;;;;;;24.37;32.54;98781.28;4981692;28;20142;-50
2024/01/04 10:48:37;;;;;;;5.32;2.20;;;;;;;24.44;32.46;98779.97;4978204;28;20026;-50
2024/01/04 10:51:09;;;;;;;7.80;3.30;;;;;;;24.50;32.33;98785.47;4980621;28;20027;-47
2024/01/04 10:53:36;;;;;;;8.00;3.17;;;;;;;24.44;32.48;98785.47;4984982;28;20030;-47
2024/01/04 10:56:03;;;;;;;5.80;2.53;;;;;;;24.40;32.56;98779.47;4983363;28;20073;-49
2024/01/04 10:58:33;;;;;;;5.97;2.60;;;;;;;24.35;32.64;98786.53;4979161;28;20062;-47
2024/01/04 11:00:59;;;;;;;6.07;2.63;;;;;;;24.33;32.50;98791.81;4981203;28;20747;-47
2024/01/04 11:03:24;;;;;;;5.60;2.45;;;;;;;24.34;32.40;98776.03;4995627;28;20034;-46
2024/01/04 11:05:49;;;;;;;5.97;2.22;;;;;;;24.36;32.27;98776.25;4993647;28;20061;-47
2024/01/04 11:08:15;;;;;;;6.55;2.25;;;;;;;24.35;32.35;98781.03;4983044;28;20037;-48
2024/01/04 11:10:41;;;;;;;5.72;2.35;;;;;;;24.31;32.27;98788.81;4965593;28;20432;-48
2024/01/04 11:13:06;;;;;;;6.60;2.05;;;;;;;24.30;32.31;98790.06;5012393;28;20026;-46
2024/01/04 11:15:31;;;;;;;5.97;1.88;;;;;;;24.31;32.12;98783.31;4983400;28;20034;-48
2024/01/04 11:18:29;;;;;;;4.60;2.05;;;;;;;24.35;32.07;98781.03;4981311;28;20026;-47
2024/01/04 11:21:12;;;;;;;6.43;3.03;;;;;;;24.44;32.27;98784.72;4297468;28;10000680;-48
2024/01/04 11:23:59;;;;;;;11.27;6.95;;;;;;;24.55;32.36;98788.19;5005106;28;20030;-46
2024/01/04 11:26:28;;;;;;;15.60;12.02;;;;;;;24.51;32.62;98773.91;4977437;28;20711;-45
2024/01/04 11:28:54;;;;;;;17.75;13.90;;;;;;;24.62;32.52;98781.34;4977149;28;20041;-39